createdAt,value
2022-11-21T00:02:38.353Z,6
2022-11-21T00:08:10.017Z,5.9
2022-11-21T00:13:53.121Z,5.8
2022-11-21T00:19:22.369Z,5.9
2022-11-21T00:25:03.846Z,5.9
2022-11-21T00:30:41.332Z,5.9
2022-11-21T00:36:09.344Z,6
2022-11-21T00:41:21.819Z,6
2022-11-21T00:47:14.276Z,6.1
2022-11-21T00:52:45.063Z,6.1
2022-11-21T00:58:14.143Z,6
2022-11-21T01:03:51.500Z,6
2022-11-21T01:09:17.014Z,6
2022-11-21T01:15:01.611Z,6
2022-11-21T01:20:33.496Z,6
2022-11-21T01:25:54.296Z,6.1
2022-11-21T01:31:39.110Z,6.1
2022-11-21T01:37:08.252Z,6.2
2022-11-21T01:42:36.923Z,6.2
2022-11-21T01:48:21.030Z,6.2
2022-11-21T01:53:35.170Z,6.1
2022-11-21T01:59:17.316Z,6
2022-11-21T02:04:55.951Z,6
2022-11-21T02:10:26.637Z,5.9
2022-11-21T02:15:48.396Z,5.9
2022-11-21T02:21:27.759Z,5.8
2022-11-21T02:26:57.554Z,5.8
2022-11-21T02:32:27.915Z,5.8
2022-11-21T02:38:19.041Z,5.8
2022-11-21T02:43:54.390Z,5.7
2022-11-21T02:49:21.645Z,5.8
2022-11-21T02:54:43.219Z,5.8
2022-11-21T03:00:10.317Z,5.7
2022-11-21T03:05:49.820Z,5.6
2022-11-21T03:11:22.751Z,5.7
2022-11-21T03:17:05.358Z,5.7
2022-11-21T03:22:27.807Z,5.9
2022-11-21T03:28:17.895Z,6
2022-11-21T03:33:27.363Z,6.1
2022-11-21T03:39:03.552Z,6
2022-11-21T03:44:39.272Z,6
2022-11-21T03:50:29.517Z,5.9
2022-11-21T03:55:46.727Z,6
2022-11-21T04:01:36.746Z,6
2022-11-21T04:07:03.112Z,6.1
2022-11-21T04:12:39.183Z,6.1
2022-11-21T04:18:07.697Z,6.2
2022-11-21T04:23:33.481Z,6.1
2022-11-21T04:29:15.390Z,6.1
2022-11-21T04:34:36.236Z,6.1
2022-11-21T04:40:32.088Z,6.1
2022-11-21T04:45:45.842Z,6.1
2022-11-21T04:51:29.060Z,6.1
2022-11-21T04:57:07.970Z,6
2022-11-21T05:02:40.112Z,6.1
2022-11-21T05:08:02.357Z,6
2022-11-21T05:13:27.371Z,6.2
2022-11-21T05:18:57.856Z,6.1
2022-11-21T05:24:36.651Z,6.1
2022-11-21T05:30:24.663Z,6.1
2022-11-21T05:35:43.334Z,6.2
2022-11-21T05:41:34.612Z,6.2
2022-11-21T05:46:53.997Z,6.1
2022-11-21T05:52:23.525Z,6.2
2022-11-21T05:57:47.009Z,6.2
2022-11-21T06:03:46.831Z,6.3
2022-11-21T06:09:11.191Z,6.4
2022-11-21T06:14:49.797Z,6.4
2022-11-21T06:20:15.535Z,6.5
2022-11-21T06:25:40.644Z,6.3
2022-11-21T06:31:10.972Z,6.3
2022-11-21T06:36:54.065Z,6.2
2022-11-21T06:42:33.291Z,6
2022-11-21T06:48:07.206Z,6
2022-11-21T06:53:29.307Z,6
2022-11-21T06:59:19.313Z,6.2
2022-11-21T07:04:41.684Z,6.3
2022-11-21T07:10:11.948Z,6.2
2022-11-21T07:15:47.667Z,6.2
2022-11-21T07:21:11.900Z,6.1
2022-11-21T07:26:57.779Z,6.1
2022-11-21T07:32:28.045Z,6.2
2022-11-21T07:38:10.841Z,6.4
2022-11-21T07:43:32.753Z,7
2022-11-21T07:48:59.407Z,7.1
2022-11-21T07:54:32.422Z,7.7
2022-11-21T08:00:03.123Z,7.8
2022-11-21T08:05:30.536Z,8
2022-11-21T08:11:19.139Z,8.3
2022-11-21T08:16:52.585Z,8
2022-11-21T08:22:17.173Z,8.2
2022-11-21T08:27:46.971Z,8.3
2022-11-21T08:33:28.611Z,8.6
2022-11-21T08:39:14.259Z,8.5
2022-11-21T08:44:52.511Z,8.3
2022-11-21T08:50:16.395Z,8.6
2022-11-21T08:56:02.853Z,8
2022-11-21T09:01:20.081Z,7.7
2022-11-21T09:07:05.349Z,7.6
2022-11-21T09:12:35.825Z,7.3
2022-11-21T09:17:48.386Z,7.2
2022-11-21T09:23:41.576Z,7.2
2022-11-21T09:29:07.190Z,7.4
2022-11-21T09:34:36.678Z,7.3
2022-11-21T09:40:00.628Z,7.4
2022-11-21T09:45:58.937Z,7.7
2022-11-21T09:51:18.586Z,7.5
2022-11-21T09:57:01.557Z,7.6
2022-11-21T10:02:23.451Z,7.8
2022-11-21T10:07:47.521Z,7.9
2022-11-21T10:13:26.338Z,7.6
2022-11-21T10:18:57.718Z,8
2022-11-21T10:24:33.413Z,8.3
2022-11-21T10:30:09.582Z,8.7
2022-11-21T10:35:49.546Z,8.9
2022-11-21T10:41:16.610Z,8.9
2022-11-21T10:46:51.013Z,8.8
2022-11-21T10:52:33.438Z,8.5
2022-11-21T11:03:18.546Z,8.6
2022-11-21T11:09:10.277Z,8.7
2022-11-21T11:14:25.865Z,9.2
2022-11-21T11:20:21.630Z,9.2
2022-11-21T11:25:47.939Z,9.3
2022-11-21T11:31:29.453Z,9
2022-11-21T11:36:50.351Z,8.9
2022-11-21T11:42:22.401Z,8.7
2022-11-21T11:47:54.726Z,8.3
2022-11-21T11:53:32.464Z,8.6
2022-11-21T11:59:16.228Z,8.5
2022-11-21T12:04:51.816Z,8.8
2022-11-21T12:10:22.728Z,8.8
2022-11-21T12:15:43.094Z,8.5
2022-11-21T12:21:20.538Z,8.3
2022-11-21T12:26:48.503Z,8.5
2022-11-21T12:32:18.439Z,8.7
2022-11-21T12:37:47.731Z,8.8
2022-11-21T12:43:27.033Z,8.7
2022-11-21T12:49:10.415Z,8.5
2022-11-21T12:54:28.359Z,8.5
2022-11-21T13:00:19.981Z,8.2
2022-11-21T13:05:31.296Z,8.2
2022-11-21T13:11:01.011Z,8.2
2022-11-21T13:16:52.355Z,8.2
2022-11-21T13:22:27.904Z,8.3
2022-11-21T13:27:41.000Z,8.5
2022-11-21T13:33:20.980Z,8.4
2022-11-21T13:38:53.292Z,8.5
2022-11-21T13:44:19.271Z,8.7
2022-11-21T13:50:15.529Z,8.3
2022-11-21T13:55:33.245Z,8.2
2022-11-21T14:00:55.931Z,8.1
2022-11-21T14:06:44.993Z,8.1
2022-11-21T14:12:16.631Z,8
2022-11-21T14:17:37.306Z,7.8
2022-11-21T14:23:24.974Z,7.8
2022-11-21T14:29:02.533Z,7.8
2022-11-21T14:34:14.146Z,7.7
2022-11-21T14:40:05.406Z,7.5
2022-11-21T14:45:36.886Z,7.3
2022-11-21T14:51:11.846Z,7.2
2022-11-21T14:56:38.994Z,7.3
2022-11-21T15:02:06.115Z,7.1
2022-11-21T15:07:38.464Z,7.1
2022-11-21T15:13:02.905Z,7.1
2022-11-21T15:18:47.214Z,7.1
2022-11-21T15:24:03.511Z,7
2022-11-21T15:29:59.065Z,6.9
2022-11-21T15:35:31.755Z,6.9
2022-11-21T15:40:52.901Z,6.8
2022-11-21T15:46:41.021Z,6.5
2022-11-21T15:52:05.924Z,6.6
2022-11-21T15:57:27.501Z,6.5
2022-11-21T16:03:12.154Z,6.5
2022-11-21T16:08:38.674Z,6.5
2022-11-21T16:14:00.337Z,6.3
2022-11-21T16:19:38.282Z,6.2
2022-11-21T16:25:17.517Z,6.1
2022-11-21T16:30:33.347Z,6.1
2022-11-21T16:36:08.508Z,6.3
2022-11-21T16:41:35.526Z,6.4
2022-11-21T16:47:23.227Z,6.5
2022-11-21T16:58:16.125Z,6.4
2022-11-21T17:04:04.516Z,6.6
2022-11-21T17:09:26.930Z,6.5
2022-11-21T17:14:50.850Z,6.6
2022-11-21T17:20:25.888Z,7
2022-11-21T17:26:08.779Z,6.8
2022-11-21T17:31:36.104Z,6.5
2022-11-21T17:37:15.265Z,6.2
2022-11-21T17:42:32.438Z,6.1
2022-11-21T17:48:06.679Z,6
2022-11-21T17:53:42.799Z,5.9
2022-11-21T17:59:14.146Z,5.8
2022-11-21T18:05:02.473Z,5.8
2022-11-21T18:10:43.138Z,5.7
2022-11-21T18:15:50.712Z,5.6
2022-11-21T18:21:30.054Z,5.5
2022-11-21T18:27:14.930Z,5.5
2022-11-21T18:32:48.655Z,5.5
2022-11-21T18:38:47.948Z,5.5
2022-11-21T18:43:50.524Z,5.5
2022-11-21T18:49:19.712Z,5.4
2022-11-21T18:54:58.861Z,5.4
2022-11-21T19:00:38.344Z,5.4
2022-11-21T19:06:13.286Z,5.3
2022-11-21T19:11:26.621Z,5.2
2022-11-21T19:17:06.080Z,5.2
2022-11-21T19:22:45.974Z,5.2
2022-11-21T19:28:23.542Z,5.2
2022-11-21T19:33:45.957Z,5.2
2022-11-21T19:39:24.572Z,5.3
2022-11-21T19:44:40.590Z,5.3
2022-11-21T19:50:07.379Z,5.4
2022-11-21T19:55:45.005Z,5.5
2022-11-21T20:01:21.279Z,5.6
2022-11-21T20:07:07.799Z,5.6
2022-11-21T20:12:34.051Z,5.7
2022-11-21T20:18:04.112Z,5.8
2022-11-21T20:23:38.580Z,5.8
2022-11-21T20:29:18.614Z,5.8
2022-11-21T20:34:51.481Z,5.7
2022-11-21T20:40:24.013Z,5.7
2022-11-21T20:46:17.163Z,5.6
2022-11-21T20:56:57.222Z,5.6
2022-11-21T21:02:18.409Z,5.6
2022-11-21T21:08:02.452Z,5.6
2022-11-21T21:13:35.491Z,5.6
2022-11-21T21:19:09.183Z,5.6
2022-11-21T21:24:21.417Z,5.6
2022-11-21T21:30:10.805Z,5.6
2022-11-21T21:35:48.155Z,5.7
2022-11-21T21:41:02.754Z,5.7
2022-11-21T21:46:29.088Z,5.8
2022-11-21T21:52:04.593Z,5.7
2022-11-21T21:57:52.656Z,5.7
2022-11-21T22:03:31.522Z,5.6
2022-11-21T22:08:54.295Z,5.6
2022-11-21T22:14:18.399Z,5.6
2022-11-21T22:20:00.940Z,5.7
2022-11-21T22:25:29.351Z,5.7
2022-11-21T22:31:12.907Z,5.8
2022-11-21T22:36:44.351Z,5.7
2022-11-21T22:41:59.649Z,5.8
2022-11-21T22:47:35.145Z,5.7
2022-11-21T22:53:15.651Z,5.7
2022-11-21T22:58:35.320Z,5.7
2022-11-21T23:04:17.408Z,5.7
2022-11-21T23:09:33.870Z,5.8
2022-11-21T23:15:05.765Z,5.8
2022-11-21T23:20:44.938Z,5.8
2022-11-21T23:26:09.053Z,5.9
2022-11-21T23:31:53.042Z,5.9
2022-11-21T23:37:27.394Z,5.9
2022-11-21T23:43:05.174Z,5.8
2022-11-21T23:48:38.894Z,5.8
2022-11-21T23:53:56.239Z,5.9
2022-11-21T23:59:45.063Z,5.9
